Time;durP1;ratioP1;P1;durP2;ratioP2;P2;SDS_P1;SDS_P2;PMS_P1;PMS_P2;Temp;Humidity;BMP_temperature;BMP_pressure;BME280_temperature;BME280_humidity;BME280_pressure;Samples;Min_cycle;Max_cycle;Signal;HPM_P1;HPM_P2
2022/08/16 00:00:38;;;;;;;6.20;5.60;;;18.10;99.90;;;17.95;80.95;97281.13;5043337;28;20453;-71
2022/08/16 00:03:06;;;;;;;6.17;5.67;;;18.10;99.50;;;18.06;81.30;97319.38;5047078;28;20477;-70
2022/08/16 00:05:36;;;;;;;5.70;5.20;;;18.00;99.30;;;18.04;81.30;97307.88;5040425;28;20537;-70
2022/08/16 00:08:04;;;;;;;5.73;5.23;;;18.00;99.50;;;18.07;81.57;97308.13;5028315;28;20466;-70
2022/08/16 00:10:32;;;;;;;5.73;5.13;;;18.00;99.90;;;17.66;82.09;97253.66;5042936;28;20463;-70
2022/08/16 00:13:04;;;;;;;6.73;6.13;;;18.00;99.90;;;17.90;83.00;97316.69;5027754;28;20461;-70
2022/08/16 00:15:37;;;;;;;7.23;6.53;;;17.90;99.90;;;17.93;83.38;97307.91;5026522;28;20454;-69
2022/08/16 00:18:05;;;;;;;6.70;6.20;;;17.90;99.90;;;17.94;83.44;97314.19;5027565;28;20472;-70
2022/08/16 00:20:33;;;;;;;7.23;6.63;;;17.90;99.90;;;17.89;83.17;97311.47;5025035;28;21050;-70
2022/08/16 00:23:01;;;;;;;7.07;6.33;;;17.80;99.90;;;17.77;83.92;97315.34;5028308;28;20453;-69
2022/08/16 00:25:28;;;;;;;6.30;5.80;;;17.70;99.90;;;17.82;83.70;97312.63;5024778;28;21138;-69
2022/08/16 00:27:55;;;;;;;7.50;6.60;;;17.70;99.90;;;17.54;83.51;97257.56;5043871;28;20507;-69
2022/08/16 00:30:24;;;;;;;6.43;5.60;;;17.70;99.90;;;17.70;84.20;97310.19;5042483;28;20547;-70
2022/08/16 00:32:57;;;;;;;6.90;6.20;;;17.60;99.90;;;17.82;83.81;97307.16;5028488;28;20558;-69
2022/08/16 00:35:28;;;;;;;7.60;6.40;;;17.60;99.90;;;17.68;84.54;97300.66;5043999;28;20499;-69
2022/08/16 00:37:56;;;;;;;6.30;5.80;;;17.50;99.90;;;17.64;84.46;97297.66;5047369;28;20503;-70
2022/08/16 00:40:28;;;;;;;6.27;5.70;;;17.50;99.90;;;17.30;83.80;97260.09;5029626;28;20872;-70
2022/08/16 00:42:56;;;;;;;6.87;5.77;;;17.50;99.90;;;17.49;84.97;97314.91;5032487;28;20443;-70
2022/08/16 00:45:34;;;;;;;7.53;6.83;;;17.40;99.90;;;17.54;84.28;97320.38;5029885;28;20454;-69
2022/08/16 00:48:08;;;;;;;5.97;5.37;;;17.50;99.90;;;17.58;83.42;97317.06;5046476;28;20956;-70
2022/08/16 00:50:39;;;;;;;7.00;6.17;;;17.50;99.90;;;17.56;83.55;97318.19;5030634;28;20538;-70
2022/08/16 00:53:10;;;;;;;6.43;5.93;;;17.40;99.90;;;17.59;82.94;97319.53;5044424;28;20881;-70
2022/08/16 00:55:41;;;;;;;7.47;6.77;;;17.50;99.90;;;17.52;83.01;97311.66;5029400;28;20462;-70
2022/08/16 00:58:10;;;;;;;6.60;6.00;;;17.50;99.90;;;17.59;82.26;97318.72;5032026;28;20462;-70
2022/08/16 01:00:38;;;;;;;6.63;6.03;;;17.50;99.90;;;17.46;82.60;97309.19;5030462;28;20544;-69
2022/08/16 01:03:12;;;;;;;6.43;5.83;;;17.40;99.90;;;17.45;82.41;97313.84;5031292;28;20469;-69
2022/08/16 01:05:39;;;;;;;6.03;5.53;;;17.40;99.90;;;17.31;83.16;97316.34;5042603;28;20806;-69
2022/08/16 01:08:09;;;;;;;7.20;6.70;;;17.30;99.90;;;17.50;81.98;97311.06;5050793;28;20481;-69
2022/08/16 01:10:37;;;;;;;7.63;5.90;;;17.30;99.90;;;17.27;82.75;97317.97;5030230;28;20462;-69
2022/08/16 01:13:10;;;;;;;5.90;5.50;;;17.30;99.90;;;17.21;82.63;97314.44;5030742;28;20888;-69
2022/08/16 01:15:42;;;;;;;7.00;6.00;;;17.30;99.90;;;17.23;82.78;97316.88;5029036;28;20463;-69
2022/08/16 01:18:17;;;;;;;6.60;6.00;;;17.20;99.90;;;17.41;82.14;97320.94;5043411;28;20451;-68
2022/08/16 01:20:51;;;;;;;6.50;5.90;;;17.30;99.90;;;17.41;82.02;97320.94;5009128;28;20797;-69
2022/08/16 01:23:27;;;;;;;6.67;6.03;;;17.30;99.90;;;17.32;81.79;97308.94;5011542;28;20954;-69
2022/08/16 01:25:57;;;;;;;6.10;5.60;;;17.30;99.90;;;17.52;81.28;97322.56;5020403;28;20465;-69
2022/08/16 01:28:27;;;;;;;8.93;6.90;;;17.30;99.90;;;17.49;81.54;97330.50;5031065;28;20462;-69
2022/08/16 01:30:57;;;;;;;5.97;5.53;;;17.20;99.90;;;17.37;81.98;97322.59;5045051;28;20492;-68
2022/08/16 01:33:25;;;;;;;6.47;5.83;;;17.20;99.90;;;17.14;82.75;97330.28;5031515;28;20548;-70
2022/08/16 01:35:56;;;;;;;6.27;5.73;;;17.10;99.90;;;17.30;82.38;97335.72;5044577;28;20442;-69
2022/08/16 01:38:28;;;;;;;6.73;5.33;;;17.10;99.90;;;17.18;82.67;97331.34;5030825;28;20461;-69
2022/08/16 01:41:00;;;;;;;8.40;6.50;;;17.10;99.90;;;17.21;82.40;97330.81;5045164;28;20450;-70
2022/08/16 01:43:27;;;;;;;6.30;5.80;;;17.10;99.90;;;17.23;82.03;97328.63;5046541;28;20759;-69
2022/08/16 01:45:56;;;;;;;5.77;5.17;;;17.10;99.90;;;17.33;81.67;97326.97;5028515;28;20479;-68
2022/08/16 01:48:27;;;;;;;7.27;6.57;;;17.10;99.90;;;17.22;81.94;97335.19;5031521;28;20456;-70
2022/08/16 01:50:54;;;;;;;7.20;6.57;;;17.10;99.90;;;17.16;81.78;97339.00;5028576;28;20798;-69
2022/08/16 01:53:22;;;;;;;6.90;6.30;;;17.00;99.80;;;17.13;81.76;97334.09;5030621;28;20938;-69
2022/08/16 01:55:49;;;;;;;6.70;6.13;;;17.00;99.80;;;17.17;81.34;97329.72;5029241;28;20582;-69
2022/08/16 01:58:18;;;;;;;7.67;6.03;;;17.10;99.10;;;17.20;81.39;97329.16;5030785;28;20809;-69
2022/08/16 02:00:46;;;;;;;6.77;5.53;;;17.00;99.90;;;16.99;81.94;97329.19;5029617;28;20519;-69
2022/08/16 02:03:15;;;;;;;6.97;6.30;;;17.00;99.60;;;17.17;81.34;97327.00;5029938;28;20468;-69
2022/08/16 02:05:42;;;;;;;8.67;5.77;;;17.00;99.80;;;16.93;82.58;97322.09;5035447;28;20464;-70
2022/08/16 02:08:09;;;;;;;7.47;6.77;;;16.90;99.90;;;16.95;82.64;97325.38;5050493;28;20441;-69
2022/08/16 02:10:38;;;;;;;6.57;5.97;;;16.80;99.90;;;17.03;81.84;97334.09;5025080;28;20469;-68
2022/08/16 02:13:07;;;;;;;6.03;5.63;;;16.90;99.90;;;17.02;82.06;97327.00;5031310;28;20472;-69
2022/08/16 02:15:39;;;;;;;7.10;6.50;;;16.80;99.90;;;17.02;81.84;97335.19;5043210;28;20556;-70
2022/08/16 02:18:08;;;;;;;6.67;6.10;;;16.80;99.90;;;16.99;81.99;97322.94;5029693;28;20971;-69
2022/08/16 02:20:38;;;;;;;6.13;5.53;;;16.80;99.90;;;17.06;81.63;97328.09;5029626;28;20492;-69
2022/08/16 02:23:07;;;;;;;7.00;6.17;;;16.90;99.80;;;17.04;81.59;97325.66;5045302;28;20461;-69
2022/08/16 02:25:35;;;;;;;6.03;5.47;;;16.80;99.90;;;17.15;81.37;97337.38;5039168;28;21028;-69
2022/08/16 02:28:04;;;;;;;6.77;6.17;;;16.80;99.90;;;16.96;81.77;97337.91;5029909;28;20453;-70
2022/08/16 02:30:33;;;;;;;7.37;6.67;;;16.80;99.90;;;16.96;82.34;97329.72;5044192;28;20461;-69
2022/08/16 02:33:03;;;;;;;6.20;5.70;;;16.80;99.90;;;16.91;82.81;97335.19;5045495;28;20469;-69
2022/08/16 02:35:30;;;;;;;6.27;5.87;;;16.70;99.90;;;16.90;82.66;97327.28;5027031;28;20846;-68
2022/08/16 02:37:59;;;;;;;7.47;6.77;;;16.80;99.90;;;16.91;82.86;97331.63;5029947;28;20449;-69
2022/08/16 02:40:27;;;;;;;6.83;6.23;;;16.70;99.90;;;16.84;83.13;97338.19;5028822;28;20460;-69
2022/08/16 02:42:55;;;;;;;12.20;6.90;;;16.70;99.90;;;16.84;82.54;97327.28;5044395;28;20457;-70
2022/08/16 02:45:26;;;;;;;6.67;6.10;;;16.70;99.90;;;17.04;82.02;97331.13;5028268;28;20454;-69
2022/08/16 02:47:54;;;;;;;7.63;6.10;;;16.80;99.90;;;16.86;82.86;97337.91;5029417;28;20575;-68
2022/08/16 02:50:22;;;;;;;5.83;5.33;;;16.70;99.90;;;16.87;82.26;97325.91;5042694;28;20452;-69
2022/08/16 02:52:50;;;;;;;6.77;6.17;;;16.70;99.90;;;16.88;82.49;97322.06;5048418;28;20466;-70
2022/08/16 02:55:18;;;;;;;7.17;6.57;;;16.70;99.90;;;16.92;82.24;97328.66;5041096;28;20454;-68
2022/08/16 02:57:45;;;;;;;8.80;6.30;;;16.70;99.90;;;16.75;83.31;97331.63;5043846;28;20463;-68
2022/08/16 03:00:16;;;;;;;7.20;6.50;;;16.60;99.90;;;16.71;83.19;97330.56;5041844;28;20977;-68
2022/08/16 03:02:45;;;;;;;6.93;6.37;;;16.60;99.90;;;16.64;83.96;97327.25;5027720;28;20984;-68
2022/08/16 03:05:14;;;;;;;7.90;6.60;;;16.50;99.90;;;16.30;83.88;97263.16;5027314;28;20551;-69
2022/08/16 03:07:43;;;;;;;6.97;6.40;;;16.50;99.90;;;16.66;83.86;97325.91;5029477;28;20472;-69
2022/08/16 03:10:13;;;;;;;7.97;7.27;;;16.50;99.90;;;16.66;83.57;97323.19;5047421;28;20557;-70
2022/08/16 03:12:42;;;;;;;7.23;6.63;;;16.60;99.90;;;16.64;83.74;97330.81;5041856;28;20507;-70
2022/08/16 03:15:13;;;;;;;7.53;6.83;;;16.50;99.90;;;16.60;84.22;97328.91;5027470;28;20450;-69
2022/08/16 03:17:40;;;;;;;7.77;7.17;;;16.50;99.90;;;16.48;84.74;97331.91;5029402;28;20446;-69
2022/08/16 03:20:12;;;;;;;7.97;7.27;;;16.40;99.90;;;16.50;84.59;97321.53;5027946;28;20445;-69
2022/08/16 03:22:39;;;;;;;8.13;7.33;;;16.40;99.90;;;16.50;84.79;97327.78;5029417;28;20442;-69
2022/08/16 03:25:11;;;;;;;7.93;7.30;;;16.40;99.90;;;16.49;84.65;97326.16;5042160;28;20957;-69
2022/08/16 03:27:39;;;;;;;8.47;7.77;;;16.40;99.90;;;16.50;84.61;97316.09;5044593;28;20451;-69
2022/08/16 03:30:10;;;;;;;9.10;8.27;;;16.30;99.90;;;16.23;85.79;97325.31;5026211;28;20867;-69
2022/08/16 03:32:38;;;;;;;8.23;7.53;;;16.20;99.90;;;16.27;86.05;97326.41;5044385;28;20542;-69
2022/08/16 03:35:07;;;;;;;12.50;8.13;;;16.20;99.90;;;16.06;86.49;97328.25;5041477;28;20549;-70
2022/08/16 03:37:34;;;;;;;7.83;7.10;;;16.20;99.90;;;16.12;86.72;97319.81;5028264;28;20512;-69
2022/08/16 03:40:03;;;;;;;8.10;7.30;;;16.10;99.90;;;16.14;86.32;97323.09;5023319;28;20457;-69
2022/08/16 03:42:31;;;;;;;12.03;7.60;;;16.00;99.90;;;16.12;86.50;97322.53;5014089;28;20473;-69
2022/08/16 03:44:58;;;;;;;8.63;7.87;;;16.00;99.90;;;16.09;86.52;97323.09;5026728;28;20454;-70
2022/08/16 03:47:27;;;;;;;9.27;8.37;;;16.00;99.90;;;15.96;86.63;97329.03;5027060;28;20853;-71
2022/08/16 03:49:55;;;;;;;8.33;7.67;;;15.90;99.90;;;16.13;86.63;97332.34;5027986;28;21004;-70
2022/08/16 03:52:24;;;;;;;8.57;7.70;;;15.90;99.90;;;16.24;85.70;97335.13;5028704;28;20481;-70
2022/08/16 03:54:52;;;;;;;10.40;7.77;;;16.00;99.90;;;16.07;86.19;97336.16;5026906;28;20459;-68
2022/08/16 03:57:20;;;;;;;8.30;7.50;;;15.90;99.90;;;15.92;86.94;97328.78;5028770;28;20457;-70
2022/08/16 03:59:48;;;;;;;9.27;8.37;;;15.90;99.90;;;16.04;86.66;97331.25;5027534;28;20458;-69
2022/08/16 04:02:17;;;;;;;8.40;7.60;;;15.90;99.90;;;16.23;85.54;97341.66;5026706;28;20465;-69
2022/08/16 04:04:45;;;;;;;9.13;8.23;;;16.00;99.90;;;16.20;85.26;97339.47;5026597;28;20645;-70
2022/08/16 04:07:13;;;;;;;9.83;8.10;;;16.00;99.90;;;16.17;85.83;97345.47;5048380;28;20456;-70
2022/08/16 04:09:40;;;;;;;8.23;7.37;;;16.00;99.90;;;16.21;85.69;97341.09;5029575;28;20455;-69
2022/08/16 04:12:10;;;;;;;9.90;8.90;;;16.00;99.90;;;16.16;85.91;97349.28;5029509;28;20477;-70
2022/08/16 04:14:37;;;;;;;8.23;7.53;;;16.00;99.90;;;16.26;85.50;97343.84;5010971;28;20463;-71
2022/08/16 04:17:06;;;;;;;8.17;7.47;;;16.10;99.90;;;16.37;84.02;97347.41;5013884;28;20462;-70
2022/08/16 04:19:34;;;;;;;10.77;8.80;;;16.20;99.90;;;16.38;84.16;97354.50;5026833;28;20498;-69
2022/08/16 04:22:01;;;;;;;8.17;7.47;;;16.20;99.90;;;16.53;83.47;97357.25;5012833;28;20449;-69
2022/08/16 04:24:29;;;;;;;9.40;8.50;;;16.30;99.90;;;16.54;83.06;97352.63;5010541;28;20819;-69
2022/08/16 04:26:56;;;;;;;8.40;7.47;;;16.30;99.90;;;16.48;83.27;97350.97;5032529;28;20473;-69
2022/08/16 04:29:23;;;;;;;7.80;7.10;;;16.30;99.90;;;16.75;82.15;97355.34;5045982;28;20514;-68
2022/08/16 04:31:53;;;;;;;9.20;7.60;;;16.40;99.90;;;16.92;81.23;97361.38;5032279;28;20475;-69
2022/08/16 04:34:23;;;;;;;8.57;7.87;;;16.70;99.10;;;17.01;79.63;97348.03;5045213;28;20447;-69
2022/08/16 04:36:50;;;;;;;7.30;6.60;;;17.00;96.20;;;17.49;78.10;97355.88;5031687;28;20545;-69
2022/08/16 04:39:17;;;;;;;8.83;8.03;;;17.20;94.90;;;17.57;77.19;97365.41;5045543;28;21235;-68
2022/08/16 04:41:45;;;;;;;8.90;8.20;;;17.50;93.40;;;17.97;75.39;97362.84;5031618;28;20524;-70
2022/08/16 04:44:13;;;;;;;8.27;7.63;;;17.80;92.60;;;18.27;74.16;97361.06;5029104;28;21215;-70
2022/08/16 04:46:40;;;;;;;7.10;6.50;;;18.00;91.70;;;18.28;73.79;97357.25;5032110;28;20449;-69
2022/08/16 04:49:08;;;;;;;8.00;7.30;;;18.30;90.80;;;18.27;73.86;97361.06;5027458;28;20462;-69
2022/08/16 04:51:40;;;;;;;8.23;7.53;;;18.20;90.90;;;18.87;71.73;97367.53;5027569;28;20477;-70
2022/08/16 04:54:08;;;;;;;7.93;7.23;;;18.70;89.80;;;19.14;70.16;97363.50;5018403;28;20475;-69
2022/08/16 04:56:36;;;;;;;7.27;6.67;;;19.10;87.50;;;19.21;70.18;97367.53;5031629;28;20472;-69
2022/08/16 04:59:07;;;;;;;6.57;5.97;;;19.20;87.20;;;19.37;68.57;97364.66;5029707;28;20458;-70
2022/08/16 05:01:34;;;;;;;7.20;6.40;;;19.60;85.20;;;19.25;69.39;97367.75;5071850;28;20537;-69
2022/08/16 05:04:02;;;;;;;6.83;6.33;;;19.40;85.40;;;19.04;69.47;97339.78;5028557;28;20450;-70
2022/08/16 05:06:30;;;;;;;7.23;6.63;;;19.40;85.50;;;19.72;67.94;97364.56;5043530;28;20449;-70
2022/08/16 05:08:59;;;;;;;7.60;6.90;;;19.80;85.00;;;19.47;68.19;97361.00;5048924;28;20448;-69
2022/08/16 05:11:28;;;;;;;8.20;6.73;;;19.90;84.00;;;19.82;67.17;97364.44;5066902;28;20533;-70
2022/08/16 05:13:55;;;;;;;7.00;6.40;;;19.90;84.10;;;19.81;66.72;97371.84;5032105;28;20450;-71
2022/08/16 05:16:26;;;;;;;7.40;6.80;;;20.10;83.20;;;19.61;67.49;97363.84;5030474;28;20558;-70
2022/08/16 05:18:56;;;;;;;6.20;5.67;;;20.20;82.70;;;19.74;66.95;97362.34;5023659;28;20520;-71
2022/08/16 05:21:25;;;;;;;7.60;6.90;;;20.30;82.90;;;19.73;66.83;97353.31;5033107;28;20530;-70
2022/08/16 05:23:53;;;;;;;7.00;6.23;;;20.20;82.40;;;19.73;66.78;97350.56;5028102;28;20459;-71
2022/08/16 05:26:21;;;;;;;6.87;6.27;;;20.20;82.40;;;19.34;67.74;97360.56;5029715;28;20466;-69
2022/08/16 05:28:49;;;;;;;6.90;6.20;;;20.00;82.30;;;19.98;66.08;97367.84;5030094;28;20527;-69
2022/08/16 05:31:16;;;;;;;6.90;6.30;;;20.20;82.40;;;20.15;65.22;97366.53;5045108;28;20962;-69
2022/08/16 05:33:44;;;;;;;6.60;6.00;;;20.40;81.90;;;20.97;62.32;97363.72;5030441;28;20513;-70
2022/08/16 05:36:11;;;;;;;7.37;6.60;;;21.00;80.70;;;20.47;63.83;97367.75;5043417;28;20464;-70
2022/08/16 05:38:39;;;;;;;6.40;5.90;;;21.20;79.60;;;20.77;62.61;97365.66;5031050;28;20478;-70
2022/08/16 05:41:07;;;;;;;8.53;6.37;;;21.20;79.50;;;20.45;64.25;97367.25;5030042;28;20464;-70
2022/08/16 05:43:36;;;;;;;7.10;5.97;;;21.20;79.80;;;21.11;61.57;97370.09;5045908;28;20490;-70
2022/08/16 05:46:04;;;;;;;7.70;7.00;;;21.50;78.80;;;20.84;62.33;97354.34;5027629;28;20935;-69
2022/08/16 05:48:31;;;;;;;6.77;6.17;;;21.70;78.40;;;20.84;62.57;97366.13;5030435;28;20452;-68
2022/08/16 05:50:58;;;;;;;8.13;6.10;;;21.50;78.50;;;21.27;61.34;97356.91;5044597;28;20453;-71
2022/08/16 05:53:26;;;;;;;8.80;6.53;;;21.70;78.30;;;21.82;59.54;97363.59;5029543;28;20569;-70
2022/08/16 05:55:53;;;;;;;6.07;5.57;;;22.00;77.80;;;21.58;59.62;97367.34;5026951;28;20520;-71
2022/08/16 05:58:21;;;;;;;7.50;6.80;;;22.30;76.70;;;21.67;59.49;97359.25;5045572;28;20461;-71
2022/08/16 06:00:50;;;;;;;5.80;5.30;;;22.10;76.80;;;20.18;64.27;97382.41;5027719;28;20549;-69
2022/08/16 06:03:17;;;;;;;7.07;6.37;;;20.90;78.30;;;19.45;67.25;97388.66;5029195;28;20446;-69
2022/08/16 06:05:44;;;;;;;6.47;5.70;;;19.80;81.30;;;19.08;68.82;97390.09;5026797;28;20871;-69
2022/08/16 06:08:11;;;;;;;6.23;5.73;;;19.20;83.90;;;18.69;70.11;97400.75;5046020;28;20461;-69
2022/08/16 06:10:39;;;;;;;6.97;6.33;;;19.00;85.20;;;18.44;71.80;97388.03;5029093;28;20798;-69
2022/08/16 06:13:06;;;;;;;7.37;6.67;;;18.50;87.80;;;18.22;72.83;97392.00;5029957;28;21001;-69
2022/08/16 06:15:33;;;;;;;6.40;5.80;;;18.30;89.50;;;18.74;71.34;97408.09;5027486;28;20454;-70
2022/08/16 06:18:02;;;;;;;7.00;6.40;;;18.50;90.00;;;18.71;71.25;97410.56;5030604;28;20539;-70
2022/08/16 06:20:30;;;;;;;8.23;6.80;;;18.70;88.90;;;18.76;71.58;97399.63;5044153;28;20462;-70
2022/08/16 06:22:57;;;;;;;7.50;6.80;;;18.60;89.40;;;19.17;70.17;97399.31;5045640;28;20458;-69
2022/08/16 06:25:26;;;;;;;7.50;6.63;;;18.80;88.60;;;19.03;69.52;97355.38;5027775;28;20783;-70
2022/08/16 06:27:54;;;;;;;7.73;6.60;;;18.90;88.50;;;19.35;69.43;97394.25;5024633;28;20451;-70
2022/08/16 06:30:21;;;;;;;7.97;6.30;;;19.10;87.70;;;19.65;68.37;97397.78;5008479;28;20469;-70
2022/08/16 06:32:49;;;;;;;7.77;7.07;;;19.20;87.30;;;19.44;68.58;97405.41;5026170;28;21038;-70
2022/08/16 06:35:18;;;;;;;6.60;6.10;;;19.20;86.60;;;19.41;68.61;97398.56;5039851;28;20677;-71
2022/08/16 06:37:46;;;;;;;7.47;6.70;;;19.20;86.60;;;19.58;67.93;97397.31;5049061;28;20441;-69
2022/08/16 06:40:13;;;;;;;6.03;5.53;;;19.30;85.80;;;19.42;68.34;97404.88;5048476;28;20502;-72
2022/08/16 06:42:40;;;;;;;9.63;6.83;;;19.20;85.70;;;19.33;68.53;97404.66;5038161;28;20472;-69
2022/08/16 06:45:08;;;;;;;6.50;5.90;;;19.20;85.70;;;19.42;68.25;97397.47;5027687;28;20478;-68
2022/08/16 06:47:36;;;;;;;7.00;6.40;;;19.20;85.80;;;19.67;67.70;97395.59;5029531;28;20450;-68
2022/08/16 06:50:04;;;;;;;7.90;5.73;;;19.40;85.90;;;19.53;67.60;97390.78;5028455;28;20506;-70
2022/08/16 06:52:33;;;;;;;5.93;5.43;;;19.40;84.90;;;19.19;68.96;97405.34;5029562;28;20481;-73
2022/08/16 06:55:01;;;;;;;6.17;5.60;;;19.20;85.80;;;19.73;67.39;97405.38;5042292;28;20836;-72
2022/08/16 06:57:28;;;;;;;6.83;6.23;;;19.40;85.60;;;19.39;68.20;97414.47;5036216;28;20461;-69
2022/08/16 06:59:56;;;;;;;7.33;6.40;;;19.30;85.10;;;19.74;67.09;97412.47;5036199;28;20464;-69
2022/08/16 07:02:24;;;;;;;6.33;5.73;;;19.50;85.20;;;20.14;66.14;97409.59;5028544;28;20461;-71
2022/08/16 07:04:52;;;;;;;7.33;6.17;;;19.70;84.90;;;20.32;65.38;97402.50;5027623;28;20463;-71
2022/08/16 07:07:20;;;;;;;7.60;6.00;;;20.00;84.20;;;20.30;65.36;97403.91;5048125;28;20457;-73
2022/08/16 07:09:48;;;;;;;6.60;6.00;;;20.10;83.50;;;20.68;64.10;97412.19;5048679;28;20458;-70
2022/08/16 07:12:16;;;;;;;6.60;5.90;;;20.30;83.30;;;20.62;63.82;97410.59;5045125;28;20469;-71
2022/08/16 07:14:44;;;;;;;7.40;6.80;;;20.40;82.50;;;20.58;63.42;97418.63;5027351;28;20462;-69
2022/08/16 07:17:11;;;;;;;5.77;5.27;;;20.40;82.10;;;20.83;62.96;97419.38;5028935;28;20481;-73
2022/08/16 07:19:39;;;;;;;7.03;6.10;;;20.60;81.90;;;20.83;63.18;97416.66;5026986;28;20529;-69
2022/08/16 07:22:06;;;;;;;6.57;5.97;;;20.50;81.90;;;20.97;62.71;97410.41;5029079;28;20461;-70
2022/08/16 07:24:34;;;;;;;6.60;5.33;;;20.70;81.80;;;21.35;61.75;97419.38;5027103;28;20781;-70
2022/08/16 07:27:03;;;;;;;7.23;5.83;;;20.90;81.60;;;21.52;61.26;97418.00;5028531;28;20445;-68
2022/08/16 07:29:31;;;;;;;8.93;5.33;;;21.10;81.40;;;21.73;60.04;97412.19;5027634;28;20677;-69
2022/08/16 07:32:00;;;;;;;6.57;5.90;;;21.30;80.30;;;21.80;59.49;97407.09;5028852;28;20515;-76
2022/08/16 07:34:27;;;;;;;5.87;5.37;;;21.40;79.70;;;21.76;59.46;97417.91;5027319;28;20607;-70
2022/08/16 07:36:54;;;;;;;6.00;5.50;;;21.40;79.40;;;21.57;58.54;97371.22;5042840;28;20458;-70
2022/08/16 07:39:22;;;;;;;6.10;5.57;;;21.40;78.80;;;22.01;58.46;97412.22;5027499;28;20493;-69
2022/08/16 07:41:49;;;;;;;6.53;6.03;;;21.50;78.60;;;21.88;59.04;97402.81;5026877;28;20806;-70
2022/08/16 07:44:18;;;;;;;6.43;5.93;;;21.50;78.60;;;21.83;59.39;97405.69;5041104;28;20479;-73
2022/08/16 07:46:45;;;;;;;8.60;6.17;;;21.60;78.80;;;22.14;58.64;97410.56;5018717;28;20466;-69
2022/08/16 07:49:13;;;;;;;6.70;6.10;;;21.80;78.70;;;22.10;58.10;97418.59;5007399;28;20481;-72
2022/08/16 07:51:40;;;;;;;6.60;6.00;;;21.90;77.90;;;22.32;57.65;97409.63;5040251;28;20817;-71
2022/08/16 07:54:10;;;;;;;6.37;5.77;;;21.90;77.70;;;21.94;59.03;97418.13;5032677;28;21001;-69
2022/08/16 07:56:38;;;;;;;5.43;5.03;;;21.90;77.90;;;22.19;58.59;97413.19;5028551;28;20952;-69
2022/08/16 07:59:05;;;;;;;6.47;5.13;;;21.90;78.20;;;22.34;58.29;97403.81;5027539;28;20566;-71
2022/08/16 08:01:35;;;;;;;6.23;5.60;;;22.00;78.00;;;22.13;58.63;97409.75;5027255;28;20463;-69
2022/08/16 08:04:03;;;;;;;6.43;5.93;;;22.00;77.90;;;22.04;58.98;97417.88;5025541;28;20474;-68
2022/08/16 08:06:32;;;;;;;5.47;4.97;;;21.80;78.00;;;22.25;58.78;97406.50;5027957;28;20652;-70
2022/08/16 08:09:00;;;;;;;5.53;4.70;;;22.00;78.20;;;22.35;57.91;97411.75;5042788;28;20485;-69
2022/08/16 08:11:29;;;;;;;6.30;5.80;;;22.00;77.70;;;22.42;56.76;97381.06;5028296;28;20450;-69
2022/08/16 08:13:59;;;;;;;6.23;4.57;;;22.20;76.90;;;22.88;56.18;97433.50;5009291;28;20470;-72
2022/08/16 08:16:27;;;;;;;6.40;5.80;;;22.40;76.70;;;23.21;55.81;97423.06;5023016;28;20487;-68
2022/08/16 08:18:56;;;;;;;5.20;4.77;;;22.60;77.00;;;22.99;55.21;97423.06;5008434;28;20549;-75
2022/08/16 08:21:25;;;;;;;5.70;5.20;;;22.70;75.70;;;23.16;55.61;97423.22;5008281;28;20447;-70
2022/08/16 08:23:52;;;;;;;5.30;5.00;;;22.70;76.00;;;23.00;55.97;97416.44;5029425;28;20465;-73
2022/08/16 08:26:20;;;;;;;8.67;5.70;;;22.70;75.90;;;23.23;55.44;97422.75;5026554;28;20457;-69
2022/08/16 08:28:48;;;;;;;5.70;5.20;;;22.80;75.70;;;23.48;54.38;97418.56;5028485;28;20450;-69
2022/08/16 08:31:15;;;;;;;6.17;5.57;;;23.00;75.30;;;23.53;53.90;97425.09;5027155;28;20446;-71
2022/08/16 08:33:42;;;;;;;5.57;5.07;;;23.20;74.90;;;23.48;54.58;97426.84;5011994;28;20478;-71
2022/08/16 08:36:14;;;;;;;5.60;5.10;;;23.30;74.70;;;23.07;55.54;97425.06;5024827;28;20462;-69
2022/08/16 08:38:43;;;;;;;6.00;5.60;;;23.00;74.80;;;22.74;56.36;97434.34;5028413;28;20469;-69
2022/08/16 08:41:10;;;;;;;6.20;5.60;;;22.70;75.00;;;23.28;55.30;97432.88;5027356;28;20534;-70
2022/08/16 08:43:37;;;;;;;5.87;5.27;;;22.80;75.30;;;23.32;55.36;97431.91;5027599;28;20948;-70
2022/08/16 08:46:05;;;;;;;6.80;6.20;;;23.00;75.20;;;23.46;54.59;97431.88;5021657;28;20456;-70
2022/08/16 08:48:32;;;;;;;6.67;6.07;;;23.10;74.90;;;23.49;54.70;97436.75;5031672;28;20454;-69
2022/08/16 08:50:59;;;;;;;5.60;5.13;;;23.10;74.50;;;23.21;54.83;97425.03;5049991;28;20463;-72
2022/08/16 08:53:28;;;;;;;5.13;4.73;;;22.90;74.30;;;23.26;55.03;97430.44;5027767;28;20471;-73
2022/08/16 08:55:55;;;;;;;6.23;5.63;;;22.90;74.40;;;23.82;53.38;97434.81;5027771;28;20477;-72
2022/08/16 08:58:22;;;;;;;5.97;5.37;;;23.30;74.10;;;23.69;53.65;97425.50;5047122;28;20484;-71
2022/08/16 09:00:50;;;;;;;6.30;5.43;;;23.20;73.70;;;24.07;53.26;97438.03;5030264;28;20556;-70
2022/08/16 09:03:17;;;;;;;6.50;5.80;;;23.50;73.90;;;24.31;51.60;97434.88;5031975;28;20445;-70
2022/08/16 09:05:45;;;;;;;6.10;5.60;;;23.70;72.80;;;24.22;51.57;97434.84;5045019;28;20450;-68
2022/08/16 09:08:12;;;;;;;6.17;5.67;;;23.90;72.20;;;24.21;52.37;97438.75;5046777;28;20497;-72
2022/08/16 09:10:41;;;;;;;7.10;5.57;;;23.90;72.40;;;23.53;53.18;97403.03;5045343;28;20452;-69
2022/08/16 09:13:08;;;;;;;5.43;4.97;;;23.70;72.40;;;24.23;51.55;97441.16;5029846;28;20470;-70
2022/08/16 09:15:36;;;;;;;5.73;5.23;;;23.80;71.60;;;24.09;51.58;97436.56;5044732;28;20481;-70
2022/08/16 09:18:04;;;;;;;5.53;5.13;;;23.80;71.50;;;24.05;51.23;97427.31;5046577;28;20446;-70
2022/08/16 09:20:33;;;;;;;6.00;4.50;;;23.90;70.80;;;24.82;50.12;97434.50;5019274;28;20538;-71
2022/08/16 09:23:01;;;;;;;6.40;5.47;;;24.20;71.00;;;25.29;49.17;97431.06;5046375;28;20458;-73
2022/08/16 09:25:28;;;;;;;5.80;5.40;;;24.60;70.60;;;25.39;48.79;97425.19;5029375;28;20470;-73
2022/08/16 09:27:57;;;;;;;8.73;5.93;;;24.90;69.70;;;25.51;48.49;97429.28;5046826;28;20453;-70
2022/08/16 09:30:25;;;;;;;8.27;5.90;;;25.00;69.80;;;25.72;48.17;97430.22;5029918;28;20488;-69
2022/08/16 09:32:53;;;;;;;5.40;5.00;;;25.40;69.40;;;25.79;47.47;97426.13;5029737;28;20544;-70
2022/08/16 09:35:21;;;;;;;5.57;5.07;;;25.40;68.60;;;24.90;48.81;97426.22;5043673;28;20457;-70
2022/08/16 09:37:48;;;;;;;5.27;4.77;;;25.00;67.70;;;25.30;48.39;97421.66;5030666;28;20510;-70
2022/08/16 09:40:16;;;;;;;5.43;4.93;;;24.90;68.20;;;25.35;48.36;97427.00;5029703;28;20541;-77
2022/08/16 09:42:43;;;;;;;5.63;5.07;;;25.00;68.10;;;25.61;46.92;97381.91;5046200;28;20452;-69
2022/08/16 09:45:13;;;;;;;5.40;4.90;;;25.40;67.60;;;26.20;45.96;97430.22;5036828;28;20472;-68
2022/08/16 09:47:40;;;;;;;5.07;4.67;;;25.70;66.60;;;26.74;44.77;97431.50;5030606;28;20936;-70
2022/08/16 09:50:10;;;;;;;7.53;4.90;;;26.10;66.10;;;27.28;42.86;97433.53;5029469;28;20460;-72
2022/08/16 09:52:38;;;;;;;6.53;6.00;;;26.50;64.70;;;27.63;42.55;97424.09;5030150;28;20467;-69
2022/08/16 09:55:08;;;;;;;5.97;5.40;;;27.00;63.90;;;26.11;45.47;97421.94;5043942;28;20908;-73
2022/08/16 09:57:36;;;;;;;4.97;4.53;;;26.20;64.10;;;27.02;43.65;97386.66;5046399;28;20450;-72
2022/08/16 10:00:07;;;;;;;4.80;4.40;;;26.70;64.30;;;27.71;42.08;97411.28;5029295;28;20852;-72
2022/08/16 10:02:36;;;;;;;5.30;4.80;;;27.20;62.70;;;27.99;41.28;97421.72;5030431;28;20454;-71
2022/08/16 10:05:05;;;;;;;5.27;4.80;;;27.50;62.00;;;27.79;42.03;97418.72;5027135;28;20855;-71
2022/08/16 10:07:32;;;;;;;5.07;4.67;;;27.50;61.50;;;26.51;43.87;97417.16;5030200;28;20446;-73
2022/08/16 10:09:59;;;;;;;5.03;4.53;;;26.80;61.20;;;26.47;44.01;97419.81;5029263;28;20446;-70
2022/08/16 10:15:19;;;;;;;4.97;4.50;;;26.80;61.90;;;28.03;41.06;97419.88;5023951;28;20475;-69
2022/08/16 10:17:53;;;;;;;5.50;5.10;;;27.50;61.00;;;28.22;39.58;97418.53;5026157;28;20813;-72
2022/08/16 10:20:23;;;;;;;6.57;5.13;;;27.70;59.50;;;28.43;39.54;97407.28;5040926;28;20460;-70
2022/08/16 10:22:50;;;;;;;5.30;4.90;;;27.90;59.20;;;28.26;39.63;97402.81;5049175;28;20445;-69
2022/08/16 10:25:18;;;;;;;5.40;5.00;;;27.90;58.90;;;28.33;39.94;97402.22;5040438;28;20961;-71
2022/08/16 10:27:46;;;;;;;5.40;4.90;;;27.90;58.80;;;27.92;40.45;97402.06;5029050;28;20458;-73